Time;durP1;ratioP1;P1;durP2;ratioP2;P2;SDS_P1;SDS_P2;PMS_P1;PMS_P2;Temp;Humidity;BMP_temperature;BMP_pressure;BME280_temperature;BME280_humidity;BME280_pressure;Samples;Min_cycle;Max_cycle;Signal;HPM_P1;HPM_P2
2022/11/21 00:00:05;;;;;;;7.88;3.58;;;0.10;72.00;;;;;;4117967;28;20262;-84
2022/11/21 00:02:25;;;;;;;6.90;3.40;;;0.10;72.10;;;;;;4107915;28;20091;-84
2022/11/21 00:04:44;;;;;;;9.38;3.60;;;0.10;72.20;;;;;;4118821;28;20054;-83
2022/11/21 00:07:03;;;;;;;4.68;2.88;;;0.10;72.20;;;;;;4119754;28;20117;-83
2022/11/21 00:09:22;;;;;;;5.63;2.92;;;0.10;72.20;;;;;;4123375;28;20100;-83
2022/11/21 00:11:41;;;;;;;5.18;3.15;;;0.10;72.30;;;;;;4116733;28;20046;-83
2022/11/21 00:14:00;;;;;;;7.03;2.95;;;0.00;72.30;;;;;;4106839;28;20527;-82
2022/11/21 00:16:19;;;;;;;7.60;2.67;;;0.10;72.30;;;;;;4103150;28;20140;-83
2022/11/21 00:18:39;;;;;;;6.18;3.13;;;0.00;72.30;;;;;;4123996;28;20138;-83
2022/11/21 00:21:04;;;;;;;9.00;2.83;;;0.00;72.30;;;;;;4116278;28;20042;-83
2022/11/21 00:23:27;;;;;;;6.32;2.72;;;0.10;72.40;;;;;;4108383;28;20060;-82
2022/11/21 00:25:46;;;;;;;4.97;2.80;;;0.10;72.50;;;;;;4121885;28;20099;-84
2022/11/21 00:28:05;;;;;;;5.82;2.88;;;0.10;72.40;;;;;;4123155;28;20064;-84
2022/11/21 00:30:25;;;;;;;6.55;2.53;;;0.10;72.30;;;;;;4106641;28;20038;-85
2022/11/21 00:32:44;;;;;;;5.25;2.60;;;0.10;72.20;;;;;;4108339;28;20069;-85
2022/11/21 00:35:05;;;;;;;5.28;3.00;;;0.10;72.10;;;;;;4121932;28;20053;-85
2022/11/21 00:37:24;;;;;;;5.20;2.65;;;0.10;72.10;;;;;;4106560;28;20098;-85
2022/11/21 00:39:44;;;;;;;6.22;2.63;;;0.10;72.10;;;;;;4112664;28;20049;-86
2022/11/21 00:42:03;;;;;;;3.75;2.28;;;0.10;72.10;;;;;;4120177;28;20109;-85
2022/11/21 00:44:22;;;;;;;6.20;2.50;;;0.10;72.00;;;;;;4121722;28;20089;-84
2022/11/21 00:46:41;;;;;;;4.93;2.33;;;0.10;72.00;;;;;;4105045;28;20094;-84
2022/11/21 00:49:01;;;;;;;4.03;2.22;;;0.10;72.10;;;;;;4108352;28;20473;-86
2022/11/21 00:51:20;;;;;;;5.28;2.63;;;0.10;72.00;;;;;;4114934;28;20041;-85
2022/11/21 00:53:39;;;;;;;4.35;2.30;;;0.10;72.10;;;;;;4122787;28;20069;-84
2022/11/21 00:55:59;;;;;;;3.75;2.10;;;0.00;72.00;;;;;;4121722;28;20065;-85
2022/11/21 00:58:18;;;;;;;3.90;2.15;;;0.00;72.00;;;;;;4117040;28;20813;-85
2022/11/21 01:00:37;;;;;;;4.68;2.28;;;0.00;72.00;;;;;;4120636;28;20049;-85
2022/11/21 01:02:56;;;;;;;3.85;2.15;;;0.00;72.00;;;;;;4108262;28;20062;-86
2022/11/21 01:05:15;;;;;;;4.78;2.17;;;0.00;72.00;;;;;;4119988;28;20045;-86
2022/11/21 01:07:34;;;;;;;6.70;2.58;;;0.00;72.10;;;;;;4109090;28;20034;-86
2022/11/21 01:09:53;;;;;;;5.25;2.63;;;0.00;72.10;;;;;;4106200;28;20081;-86
2022/11/21 01:12:12;;;;;;;4.47;2.53;;;0.00;72.10;;;;;;4106016;28;20037;-86
2022/11/21 01:14:31;;;;;;;6.65;3.00;;;0.00;72.10;;;;;;4121343;28;20049;-86
2022/11/21 01:16:50;;;;;;;5.75;2.67;;;0.00;72.10;;;;;;4112546;28;20126;-84
2022/11/21 01:19:09;;;;;;;5.13;2.53;;;0.00;72.10;;;;;;4119823;28;20108;-86
2022/11/21 01:21:30;;;;;;;5.18;2.97;;;0.00;72.10;;;;;;4122741;28;20049;-86
2022/11/21 01:23:49;;;;;;;5.80;2.38;;;0.00;72.10;;;;;;4103909;28;20420;-85
2022/11/21 01:26:15;;;;;;;6.05;3.03;;;0.00;72.20;;;;;;4105062;28;20146;-87
2022/11/21 01:28:34;;;;;;;6.97;3.05;;;0.00;72.20;;;;;;4121197;28;20034;-87
2022/11/21 01:30:53;;;;;;;4.68;2.65;;;0.00;72.20;;;;;;4103033;28;20045;-87
2022/11/21 01:33:12;;;;;;;5.28;2.88;;;0.00;72.20;;;;;;4119965;28;20060;-86
2022/11/21 01:35:32;;;;;;;6.07;2.83;;;0.00;72.20;;;;;;4120449;28;20049;-87
2022/11/21 01:37:51;;;;;;;6.38;2.95;;;0.00;72.20;;;;;;4119858;28;20120;-86
2022/11/21 01:40:11;;;;;;;4.88;2.70;;;0.00;72.20;;;;;;4119920;28;20089;-86
2022/11/21 01:42:52;;;;;;;5.82;3.05;;;0.00;72.20;;;;;;4117385;28;20046;-86
2022/11/21 01:45:49;;;;;;;7.55;3.10;;;0.00;72.20;;;;;;4107155;28;20126;-87
2022/11/21 01:48:08;;;;;;;6.90;3.20;;;0.00;72.30;;;;;;4117271;28;20096;-86
2022/11/21 01:50:27;;;;;;;8.93;3.55;;;0.00;72.20;;;;;;4114723;28;20046;-85
2022/11/21 01:52:47;;;;;;;6.50;3.10;;;0.00;72.30;;;;;;4118976;28;20045;-86
2022/11/21 01:55:09;;;;;;;5.75;3.20;;;0.00;72.30;;;;;;4123348;28;20411;-83
2022/11/21 01:57:34;;;;;;;10.15;3.25;;;0.00;72.30;;;;;;4121244;28;20033;-84
2022/11/21 01:59:56;;;;;;;6.05;2.92;;;0.00;72.40;;;;;;4124327;28;20037;-82
2022/11/21 02:02:18;;;;;;;5.03;3.00;;;0.00;72.50;;;;;;4106654;28;20038;-84
2022/11/21 02:04:41;;;;;;;7.82;3.47;;;0.00;72.60;;;;;;4119466;28;20442;-83
2022/11/21 02:07:04;;;;;;;5.55;3.22;;;0.00;72.60;;;;;;4116671;28;20041;-83
2022/11/21 02:09:25;;;;;;;8.30;3.00;;;0.00;73.40;;;;;;4105728;28;20089;-83
2022/11/21 02:11:49;;;;;;;5.45;2.75;;;0.00;72.60;;;;;;4119181;28;20045;-82
2022/11/21 02:14:10;;;;;;;6.63;3.17;;;0.00;72.60;;;;;;4137475;28;20171;-82
2022/11/21 02:16:30;;;;;;;5.53;3.08;;;0.00;72.60;;;;;;4131161;28;20033;-83
2022/11/21 02:18:49;;;;;;;5.90;3.00;;;0.10;72.70;;;;;;4119134;28;20053;-83
2022/11/21 02:21:19;;;;;;;5.80;3.08;;;0.10;72.80;;;;;;4119912;28;20049;-84
2022/11/21 02:23:54;;;;;;;5.00;2.75;;;0.00;72.70;;;;;;4117432;28;20081;-82
2022/11/21 02:26:14;;;;;;;7.05;3.35;;;0.10;72.60;;;;;;4117558;28;20037;-82
2022/11/21 02:28:33;;;;;;;8.18;2.97;;;0.10;72.60;;;;;;4109307;28;20050;-83
2022/11/21 02:30:52;;;;;;;7.22;3.30;;;0.00;72.50;;;;;;4114417;28;20077;-84
2022/11/21 02:33:12;;;;;;;7.85;3.10;;;0.10;72.60;;;;;;4117578;28;20145;-83
2022/11/21 02:35:32;;;;;;;5.70;3.40;;;0.10;72.60;;;;;;4120735;28;20072;-83
2022/11/21 02:38:18;;;;;;;6.95;3.45;;;0.10;72.60;;;;;;4120546;28;20057;-84
2022/11/21 02:40:42;;;;;;;5.75;3.15;;;0.20;72.90;;;;;;4103733;28;20539;-84
2022/11/21 02:43:16;;;;;;;7.68;3.33;;;0.10;72.70;;;;;;4115826;28;20132;-83
2022/11/21 02:45:44;;;;;;;8.77;3.60;;;0.10;72.80;;;;;;4119388;28;20068;-82
2022/11/21 02:48:03;;;;;;;5.03;2.80;;;0.10;72.80;;;;;;4119600;28;20037;-84
2022/11/21 02:50:30;;;;;;;7.05;3.03;;;0.10;72.80;;;;;;4103147;28;20042;-84
2022/11/21 02:52:49;;;;;;;5.88;2.90;;;0.10;72.90;;;;;;4119063;28;20133;-83
2022/11/21 02:55:10;;;;;;;6.88;3.05;;;0.20;72.90;;;;;;4104406;28;20086;-84
2022/11/21 02:57:29;;;;;;;6.35;3.15;;;0.10;72.80;;;;;;4119280;28;20054;-83
2022/11/21 02:59:48;;;;;;;5.55;3.25;;;0.10;72.80;;;;;;4114599;28;20092;-84
2022/11/21 03:02:07;;;;;;;6.00;3.10;;;0.10;72.80;;;;;;4106903;28;20038;-82
2022/11/21 03:04:26;;;;;;;6.43;3.22;;;0.10;72.80;;;;;;4103690;28;20105;-83
2022/11/21 03:06:45;;;;;;;6.97;3.42;;;0.10;72.80;;;;;;4107446;28;20730;-83
2022/11/21 03:09:04;;;;;;;5.95;3.08;;;0.10;72.80;;;;;;4119954;28;20035;-82
2022/11/21 03:11:23;;;;;;;7.03;3.47;;;0.10;72.90;;;;;;4118762;28;20065;-83
2022/11/21 03:13:42;;;;;;;4.65;2.90;;;0.10;72.90;;;;;;4116619;28;20366;-84
2022/11/21 03:16:01;;;;;;;7.78;2.78;;;0.10;73.00;;;;;;4118867;28;20113;-84
2022/11/21 03:18:17;;;;;;;6.22;3.50;;;0.10;73.00;;;;;;4133124;28;20045;-83
2022/11/21 03:20:37;;;;;;;5.95;3.00;;;0.10;73.10;;;;;;4108901;28;20081;-83
2022/11/21 03:22:56;;;;;;;7.95;3.10;;;0.10;73.10;;;;;;4106108;28;20046;-84
2022/11/21 03:25:16;;;;;;;6.03;3.20;;;0.10;73.20;;;;;;4121690;28;20153;-83
2022/11/21 03:27:35;;;;;;;5.07;3.20;;;0.10;73.20;;;;;;4121035;28;20451;-84
2022/11/21 03:29:54;;;;;;;5.97;3.08;;;0.10;73.20;;;;;;4106688;28;20117;-84
2022/11/21 03:32:14;;;;;;;6.60;3.08;;;0.10;73.20;;;;;;4115338;28;20049;-82
2022/11/21 03:34:33;;;;;;;5.53;2.92;;;0.10;73.20;;;;;;4121271;28;20406;-84
2022/11/21 03:36:53;;;;;;;6.13;3.15;;;0.10;73.20;;;;;;4108994;28;20094;-82
2022/11/21 03:39:12;;;;;;;6.68;3.25;;;0.20;73.20;;;;;;4112320;28;20054;-83
2022/11/21 03:41:31;;;;;;;6.45;2.90;;;0.10;73.30;;;;;;4118985;28;20272;-83
2022/11/21 03:43:51;;;;;;;5.07;2.85;;;0.10;73.30;;;;;;4123344;28;20121;-84
2022/11/21 03:46:10;;;;;;;5.45;2.85;;;0.30;73.50;;;;;;4119939;28;20550;-83
2022/11/21 03:48:29;;;;;;;6.13;3.30;;;0.10;73.40;;;;;;4121481;28;21292;-83
2022/11/21 03:50:48;;;;;;;5.95;3.13;;;0.10;73.40;;;;;;4107343;28;20049;-84
2022/11/21 03:53:07;;;;;;;7.40;3.45;;;0.20;73.50;;;;;;4104953;28;20042;-83
2022/11/21 03:55:26;;;;;;;4.45;2.80;;;0.10;73.50;;;;;;4120585;28;20041;-82
2022/11/21 03:57:45;;;;;;;6.32;3.22;;;0.10;73.50;;;;;;4103949;28;20038;-83
2022/11/21 04:00:05;;;;;;;7.20;2.97;;;0.20;73.50;;;;;;4117847;28;20087;-82
2022/11/21 04:02:24;;;;;;;4.93;2.95;;;0.20;73.60;;;;;;4123474;28;20102;-82
2022/11/21 04:04:43;;;;;;;7.50;3.33;;;0.20;73.60;;;;;;4122318;28;20092;-83
2022/11/21 04:07:02;;;;;;;5.93;2.67;;;0.20;73.60;;;;;;4107811;28;20061;-83
2022/11/21 04:09:22;;;;;;;6.20;3.38;;;0.20;73.50;;;;;;4118767;28;20061;-83
2022/11/21 04:11:41;;;;;;;5.07;3.05;;;0.20;74.30;;;;;;4120477;28;20694;-83
2022/11/21 04:14:00;;;;;;;5.85;3.20;;;0.20;74.30;;;;;;4115205;28;20871;-83
2022/11/21 04:16:19;;;;;;;8.25;3.67;;;0.20;73.60;;;;;;4123236;28;20049;-83
2022/11/21 04:18:38;;;;;;;6.97;3.30;;;0.20;73.60;;;;;;4105771;28;20102;-84
2022/11/21 04:20:58;;;;;;;6.85;3.50;;;0.20;73.60;;;;;;4103836;28;20078;-83
2022/11/21 04:23:18;;;;;;;5.95;3.22;;;0.20;73.40;;;;;;4117395;28;20084;-83
2022/11/21 04:25:37;;;;;;;10.55;3.50;;;0.10;73.20;;;;;;4123706;28;20081;-82
2022/11/21 04:28:00;;;;;;;5.53;3.10;;;0.20;73.20;;;;;;4110759;28;20088;-83
2022/11/21 04:30:19;;;;;;;4.63;3.05;;;0.20;73.30;;;;;;4119489;28;20045;-84
2022/11/21 04:32:38;;;;;;;5.13;2.90;;;0.10;73.20;;;;;;4122859;28;20049;-83
2022/11/21 04:34:57;;;;;;;5.53;2.90;;;0.10;73.20;;;;;;4107020;28;20105;-82
2022/11/21 04:37:16;;;;;;;5.65;3.00;;;0.10;73.20;;;;;;4137479;28;20048;-83
2022/11/21 04:39:35;;;;;;;6.13;2.80;;;0.10;73.10;;;;;;4108548;28;20082;-82
2022/11/21 04:41:54;;;;;;;4.80;2.95;;;0.10;73.20;;;;;;4106176;28;20041;-83
2022/11/21 04:44:13;;;;;;;5.65;2.90;;;0.00;73.00;;;;;;4126196;28;20122;-84
2022/11/21 04:46:33;;;;;;;5.95;2.72;;;0.10;73.20;;;;;;4106889;28;20514;-83
2022/11/21 04:48:52;;;;;;;4.95;2.80;;;0.00;73.10;;;;;;4105927;28;20038;-84
2022/11/21 04:51:12;;;;;;;4.47;2.40;;;0.10;73.20;;;;;;4103794;28;21159;-84
2022/11/21 04:53:31;;;;;;;3.90;2.42;;;0.00;73.10;;;;;;4102890;28;20141;-82
2022/11/21 04:55:50;;;;;;;4.32;2.53;;;0.00;73.10;;;;;;4107107;28;20586;-83
2022/11/21 04:58:09;;;;;;;5.00;2.80;;;0.00;73.20;;;;;;4117361;28;20135;-83
2022/11/21 05:00:28;;;;;;;5.25;2.88;;;0.00;73.20;;;;;;4101809;28;20069;-83
2022/11/21 05:02:48;;;;;;;4.88;2.30;;;0.00;73.20;;;;;;4117030;28;20155;-83
2022/11/21 05:05:07;;;;;;;5.40;2.70;;;0.00;73.40;;;;;;4107244;28;20260;-83
2022/11/21 05:07:26;;;;;;;4.32;2.83;;;0.00;73.30;;;;;;4116370;28;20088;-83
2022/11/21 05:09:45;;;;;;;4.75;2.88;;;0.00;73.20;;;;;;4122263;28;20171;-84
2022/11/21 05:14:42;;;;;;;5.07;2.10;;;0.00;73.10;;;;;;4122528;28;20088;-83
2022/11/21 05:17:01;;;;;;;6.00;2.75;;;0.00;73.10;;;;;;4117975;28;20346;-82
2022/11/21 05:19:20;;;;;;;3.97;2.10;;;0.00;73.20;;;;;;4117680;28;20714;-82
2022/11/21 05:21:39;;;;;;;5.70;2.35;;;0.00;73.30;;;;;;4102652;28;20434;-83
2022/11/21 05:23:59;;;;;;;5.47;2.50;;;0.00;73.30;;;;;;4122426;28;20638;-84
2022/11/21 05:26:18;;;;;;;4.13;2.10;;;0.00;73.30;;;;;;4112895;28;20037;-83
2022/11/21 05:28:37;;;;;;;4.72;2.38;;;0.00;73.30;;;;;;4109654;28;20075;-82
2022/11/21 05:30:56;;;;;;;6.15;2.30;;;0.00;73.30;;;;;;4108691;28;20037;-82
2022/11/21 05:33:16;;;;;;;4.95;2.30;;;0.00;73.20;;;;;;4121585;28;20411;-82
2022/11/21 05:35:37;;;;;;;4.00;2.22;;;0.10;73.30;;;;;;4122290;28;20041;-82
2022/11/21 05:37:57;;;;;;;3.63;2.08;;;0.10;73.30;;;;;;4120813;28;20045;-81
2022/11/21 05:40:17;;;;;;;5.53;2.35;;;0.10;73.30;;;;;;4106984;28;20050;-82
2022/11/21 05:45:19;;;;;;;4.47;1.95;;;0.20;73.20;;;;;;4123111;28;20116;-83
2022/11/21 05:47:40;;;;;;;4.20;2.20;;;0.10;73.10;;;;;;4115973;28;21432;-82
2022/11/21 05:50:00;;;;;;;3.72;2.03;;;0.10;73.10;;;;;;4116380;28;20045;-84
2022/11/21 05:52:19;;;;;;;3.65;2.30;;;0.20;73.10;;;;;;4123081;28;20044;-84
2022/11/21 05:54:38;;;;;;;4.45;2.08;;;0.10;73.00;;;;;;4116683;28;20069;-83
2022/11/21 05:56:57;;;;;;;3.78;2.38;;;0.20;73.00;;;;;;4134403;28;20098;-83
2022/11/21 05:59:05;;;;;;;4.40;2.67;;;0.20;73.00;;;;;;4115261;28;20061;-83
2022/11/21 06:01:07;;;;;;;5.43;2.45;;;0.20;72.90;;;;;;4120052;28;20026;-84
2022/11/21 06:03:29;;;;;;;4.00;2.08;;;0.20;72.90;;;;;;4118188;28;20027;-83
2022/11/21 06:05:30;;;;;;;4.40;2.10;;;0.20;72.90;;;;;;4105941;28;20050;-84
2022/11/21 06:07:31;;;;;;;3.60;1.90;;;0.20;72.80;;;;;;4102222;28;20070;-83
2022/11/21 06:09:32;;;;;;;3.90;1.95;;;0.20;72.70;;;;;;4089292;28;20034;-83
2022/11/21 06:11:32;;;;;;;3.40;1.77;;;0.20;72.70;;;;;;4094556;28;20117;-83
2022/11/21 06:13:33;;;;;;;4.38;2.30;;;0.30;72.70;;;;;;4109315;28;20034;-83
2022/11/21 06:15:36;;;;;;;4.90;2.40;;;0.30;72.70;;;;;;4111801;28;20038;-82
2022/11/21 06:17:36;;;;;;;3.23;1.77;;;0.30;72.60;;;;;;4115139;28;20031;-83
2022/11/21 06:19:37;;;;;;;3.85;2.08;;;0.30;72.60;;;;;;4101917;28;20980;-82
2022/11/21 06:21:37;;;;;;;3.25;1.90;;;0.30;72.60;;;;;;4087673;28;20055;-82
2022/11/21 06:23:38;;;;;;;5.45;2.20;;;0.30;72.60;;;;;;4105860;28;20030;-82
2022/11/21 06:25:39;;;;;;;3.63;1.95;;;0.30;72.60;;;;;;4119208;28;20077;-82
2022/11/21 06:27:40;;;;;;;5.25;2.05;;;0.30;72.60;;;;;;4103512;28;20061;-82
2022/11/21 06:29:40;;;;;;;3.58;2.05;;;0.30;72.50;;;;;;4105681;28;20030;-82
2022/11/21 06:31:41;;;;;;;3.63;2.00;;;0.30;72.60;;;;;;4109360;28;20080;-83
2022/11/21 06:33:42;;;;;;;4.32;1.92;;;0.30;72.50;;;;;;4089713;28;20179;-83
2022/11/21 06:35:43;;;;;;;5.03;1.73;;;0.30;72.60;;;;;;4121009;28;20034;-83
2022/11/21 06:37:44;;;;;;;4.20;2.00;;;0.40;72.60;;;;;;4104210;28;20027;-83
2022/11/21 06:39:45;;;;;;;3.38;1.90;;;0.40;72.60;;;;;;4120946;28;20493;-83
2022/11/21 06:41:49;;;;;;;4.38;1.73;;;0.40;72.60;;;;;;4107502;28;20046;-83
2022/11/21 06:43:51;;;;;;;5.07;2.05;;;0.40;72.60;;;;;;4105628;28;20150;-83
2022/11/21 06:45:55;;;;;;;3.20;2.00;;;0.40;72.60;;;;;;4119545;28;20700;-83
2022/11/21 06:47:56;;;;;;;3.55;2.10;;;0.40;72.60;;;;;;4108489;28;20055;-83
2022/11/21 06:49:56;;;;;;;5.10;2.20;;;0.50;72.70;;;;;;4100306;28;20023;-83
2022/11/21 06:51:57;;;;;;;2.67;1.83;;;0.40;72.60;;;;;;4130987;28;20043;-84
2022/11/21 06:53:59;;;;;;;3.83;2.10;;;0.40;72.60;;;;;;4081912;28;20058;-84
2022/11/21 06:56:04;;;;;;;3.97;2.08;;;0.40;72.70;;;;;;4090414;28;20177;-84
2022/11/21 06:58:25;;;;;;;6.38;2.13;;;0.50;72.70;;;;;;4114371;28;20030;-83
2022/11/21 07:00:27;;;;;;;4.15;2.13;;;0.60;72.80;;;;;;4085270;28;20023;-83
2022/11/21 07:02:47;;;;;;;5.18;1.85;;;0.50;72.70;;;;;;4119488;28;20057;-83
2022/11/21 07:05:08;;;;;;;5.18;2.53;;;0.50;72.70;;;;;;4103927;28;20027;-84
2022/11/21 07:07:29;;;;;;;3.47;2.03;;;0.50;72.90;;;;;;4119341;28;20026;-84
2022/11/21 07:09:49;;;;;;;3.92;2.05;;;0.50;72.80;;;;;;4118921;28;20030;-84
2022/11/21 07:13:20;;;;;;;3.22;2.10;;;0.50;72.80;;;;;;4115026;28;20066;-83
2022/11/21 07:14:56;;;;;;;4.10;2.22;;;0.50;72.80;;;;;;4127990;28;20068;-84
2022/11/21 07:17:17;;;;;;;3.70;2.10;;;0.60;73.00;;;;;;4122983;28;20073;-84
2022/11/21 07:19:38;;;;;;;3.17;1.90;;;0.50;72.90;;;;;;4115535;28;20527;-84
2022/11/21 07:21:59;;;;;;;4.15;2.03;;;0.60;73.00;;;;;;4103969;28;20145;-84
2022/11/21 07:24:20;;;;;;;8.02;2.30;;;0.60;73.10;;;;;;4103228;28;20054;-83
2022/11/21 07:26:40;;;;;;;4.43;2.40;;;0.60;73.20;;;;;;4102968;28;20039;-84
2022/11/21 07:29:01;;;;;;;5.40;2.65;;;0.60;73.20;;;;;;4117024;28;20026;-83
2022/11/21 07:31:22;;;;;;;4.13;2.63;;;0.60;73.30;;;;;;4117416;28;20034;-83
2022/11/21 07:33:42;;;;;;;4.15;2.05;;;0.60;73.30;;;;;;4119373;28;20057;-84
2022/11/21 07:36:03;;;;;;;3.65;2.30;;;0.60;73.30;;;;;;4107969;28;20034;-84
2022/11/21 07:38:25;;;;;;;5.28;2.83;;;0.60;73.30;;;;;;4116044;28;20062;-84
2022/11/21 07:40:45;;;;;;;5.22;1.95;;;0.60;73.20;;;;;;4104730;28;20042;-84
2022/11/21 07:43:06;;;;;;;6.97;2.70;;;0.60;73.20;;;;;;4103946;28;20058;-84
2022/11/21 07:45:13;;;;;;;5.05;2.65;;;0.60;73.30;;;;;;4092137;28;20031;-84
2022/11/21 07:47:14;;;;;;;5.03;2.58;;;0.60;73.40;;;;;;4118266;28;20508;-84
2022/11/21 07:49:14;;;;;;;3.35;2.38;;;0.60;73.50;;;;;;4101910;28;20042;-83
2022/11/21 07:51:15;;;;;;;3.83;2.40;;;0.60;73.50;;;;;;4103311;28;20361;-83
2022/11/21 07:53:15;;;;;;;6.30;2.63;;;0.60;73.70;;;;;;4120863;28;20546;-83
2022/11/21 07:55:25;;;;;;;4.28;2.22;;;0.60;73.70;;;;;;4106604;28;20043;-84
2022/11/21 07:57:45;;;;;;;4.03;2.38;;;0.70;73.60;;;;;;4119672;28;20156;-83
2022/11/21 08:00:07;;;;;;;4.80;2.45;;;0.60;73.70;;;;;;4103965;28;20488;-83
2022/11/21 08:02:28;;;;;;;6.20;3.22;;;0.70;73.90;;;;;;4101106;28;20671;-83
2022/11/21 08:04:48;;;;;;;4.43;2.65;;;0.70;74.00;;;;;;4105169;28;20049;-84
2022/11/21 08:07:09;;;;;;;7.82;3.08;;;0.70;74.00;;;;;;4116002;28;20570;-84
2022/11/21 08:09:30;;;;;;;6.03;2.90;;;0.70;74.00;;;;;;4104393;28;20064;-83
2022/11/21 08:11:34;;;;;;;4.47;2.78;;;0.70;74.00;;;;;;4084785;28;20031;-83
2022/11/21 08:13:54;;;;;;;4.90;2.60;;;0.70;74.00;;;;;;4120983;28;20032;-84
2022/11/21 08:15:55;;;;;;;4.10;2.95;;;0.70;74.00;;;;;;4097555;28;20572;-84
2022/11/21 08:18:19;;;;;;;5.57;2.80;;;0.70;74.10;;;;;;4103593;28;20038;-84
2022/11/21 08:20:41;;;;;;;4.05;2.40;;;0.70;74.10;;;;;;4120262;28;20686;-83
2022/11/21 08:23:02;;;;;;;5.75;3.00;;;0.80;74.10;;;;;;4102552;28;20042;-84
2022/11/21 08:25:23;;;;;;;6.20;3.30;;;0.70;74.20;;;;;;4126120;28;20503;-83
2022/11/21 08:27:44;;;;;;;6.35;3.42;;;0.80;74.30;;;;;;4117119;28;20129;-83
2022/11/21 08:30:07;;;;;;;7.30;3.17;;;0.80;74.40;;;;;;4118365;28;20085;-84
2022/11/21 08:32:27;;;;;;;6.20;2.92;;;0.80;75.00;;;;;;4114390;28;20038;-84
2022/11/21 08:34:48;;;;;;;5.38;2.90;;;0.80;75.00;;;;;;4115077;28;20078;-82
2022/11/21 08:37:09;;;;;;;6.70;3.10;;;0.80;74.20;;;;;;4116249;28;20035;-84
2022/11/21 08:39:32;;;;;;;7.28;3.47;;;0.80;74.30;;;;;;4105422;28;20506;-83
2022/11/21 08:42:02;;;;;;;;;;;0.80;74.30;;;;;;4100078;28;20527;-83
2022/11/21 08:44:23;;;;;;;5.97;3.05;;;0.80;75.10;;;;;;4098479;28;20298;-84
2022/11/21 08:46:43;;;;;;;4.63;3.00;;;0.80;74.40;;;;;;4111514;28;20049;-83
2022/11/21 08:49:07;;;;;;;6.70;3.17;;;0.80;74.40;;;;;;4100058;28;20749;-83
2022/11/21 08:51:28;;;;;;;5.13;2.67;;;0.80;74.40;;;;;;4112860;28;20558;-84
2022/11/21 08:53:49;;;;;;;4.13;2.60;;;0.80;74.50;;;;;;4100925;28;20983;-83
2022/11/21 08:56:10;;;;;;;9.40;3.00;;;0.90;74.60;;;;;;4101624;28;20066;-84
2022/11/21 08:58:30;;;;;;;6.38;3.35;;;0.90;74.70;;;;;;4118270;28;20038;-83
2022/11/21 09:00:51;;;;;;;7.45;3.70;;;0.90;74.90;;;;;;4104004;28;20499;-84
2022/11/21 09:03:12;;;;;;;5.22;3.42;;;0.90;75.00;;;;;;4117844;28;20042;-85
2022/11/21 09:05:33;;;;;;;7.50;3.88;;;0.90;74.90;;;;;;4110190;28;20037;-83
2022/11/21 09:07:57;;;;;;;7.78;3.80;;;1.00;75.30;;;;;;4115877;28;20038;-83
2022/11/21 09:10:18;;;;;;;7.10;3.35;;;1.00;75.70;;;;;;4096444;28;20026;-83
2022/11/21 09:12:38;;;;;;;4.43;2.90;;;1.00;75.20;;;;;;4090947;28;20031;-83
2022/11/21 09:20:17;;;;;;;7.20;4.13;;;1.10;75.30;;;;;;4112447;28;20041;-84
2022/11/21 09:22:38;;;;;;;5.70;3.30;;;1.10;75.30;;;;;;4108135;28;20129;-83
2022/11/21 09:24:58;;;;;;;6.28;4.00;;;1.10;75.30;;;;;;4113623;28;20544;-83
2022/11/21 09:27:19;;;;;;;7.03;4.00;;;1.10;75.20;;;;;;4116611;28;20062;-84
2022/11/21 09:29:40;;;;;;;9.00;3.60;;;1.10;75.90;;;;;;4103360;28;20045;-82
2022/11/21 09:32:01;;;;;;;6.15;3.63;;;1.10;75.30;;;;;;4114846;28;20035;-84
2022/11/21 09:34:21;;;;;;;5.22;3.25;;;1.10;75.10;;;;;;4117199;28;20038;-84
2022/11/21 09:36:42;;;;;;;5.57;3.60;;;1.20;75.20;;;;;;4101958;28;20045;-84
2022/11/21 09:39:03;;;;;;;8.50;4.03;;;1.20;75.20;;;;;;4099407;28;20066;-83
2022/11/21 09:41:52;;;;;;;7.57;4.15;;;1.20;75.30;;;;;;4104133;28;20031;-83
2022/11/21 09:44:38;;;;;;;8.48;4.70;;;1.20;75.60;;;;;;4119475;28;20039;-84
2022/11/21 09:47:25;;;;;;;10.90;5.70;;;1.20;75.70;;;;;;4115844;28;20491;-83
2022/11/21 09:50:07;;;;;;;8.70;5.20;;;1.20;75.60;;;;;;4116834;28;20033;-83
2022/11/21 09:52:39;;;;;;;8.93;4.88;;;1.20;75.50;;;;;;4095643;28;20121;-83
2022/11/21 09:55:03;;;;;;;4.97;3.13;;;1.20;75.40;;;;;;4121542;28;20096;-82
2022/11/21 09:57:25;;;;;;;7.22;3.30;;;1.30;75.50;;;;;;4108921;28;20042;-83
2022/11/21 09:59:47;;;;;;;6.13;3.17;;;1.30;75.70;;;;;;4130424;28;20065;-82
2022/11/21 10:02:16;;;;;;;6.85;3.70;;;1.30;75.80;;;;;;4115396;28;20057;-83
2022/11/21 10:04:35;;;;;;;7.55;3.83;;;1.40;75.90;;;;;;4101012;28;20037;-83
2022/11/21 10:07:04;;;;;;;6.05;3.17;;;1.40;76.00;;;;;;4096857;28;20094;-83
2022/11/21 10:09:54;;;;;;;6.55;3.50;;;1.40;76.10;;;;;;4104548;28;20045;-83
2022/11/21 10:12:37;;;;;;;8.88;4.60;;;1.40;76.30;;;;;;4098232;28;20113;-83
2022/11/21 10:15:06;;;;;;;6.72;4.32;;;1.50;76.20;;;;;;4114805;28;20123;-84
2022/11/21 10:17:33;;;;;;;8.73;4.40;;;1.50;76.10;;;;;;4109458;28;21227;-83
2022/11/21 10:20:01;;;;;;;6.07;3.42;;;1.50;75.90;;;;;;4114436;28;20097;-84
2022/11/21 10:22:29;;;;;;;3.85;2.75;;;1.60;75.90;;;;;;4116011;28;20073;-84
2022/11/21 10:25:01;;;;;;;7.47;3.05;;;1.60;75.80;;;;;;4116334;28;20774;-84
2022/11/21 10:27:38;;;;;;;6.97;3.53;;;1.60;76.00;;;;;;4097631;28;20154;-84
2022/11/21 10:30:05;;;;;;;4.38;2.75;;;1.60;75.90;;;;;;4100227;28;20101;-83
2022/11/21 10:32:39;;;;;;;5.05;2.80;;;1.60;76.60;;;;;;4110597;28;20053;-83
2022/11/21 10:35:03;;;;;;;7.40;2.80;;;1.60;76.00;;;;;;4104007;28;20115;-84
2022/11/21 10:37:36;;;;;;;7.43;3.20;;;1.60;76.00;;;;;;4116892;28;20042;-83
2022/11/21 10:39:55;;;;;;;5.20;3.03;;;1.70;76.80;;;;;;4104975;28;20033;-83
2022/11/21 10:42:53;;;;;;;7.18;3.47;;;1.70;76.10;;;;;;4120978;28;20162;-84
2022/11/21 10:45:16;;;;;;;5.53;3.20;;;1.70;76.30;;;;;;4046841;29;20130;-83
2022/11/21 10:47:38;;;;;;;4.60;2.97;;;1.70;76.40;;;;;;4052889;29;20106;-84
2022/11/21 10:50:24;;;;;;;5.82;3.28;;;1.70;76.30;;;;;;4034240;29;20035;-83
2022/11/21 10:52:48;;;;;;;7.90;3.53;;;1.70;76.30;;;;;;4037255;29;20123;-84
2022/11/21 10:55:10;;;;;;;5.90;3.30;;;1.80;76.50;;;;;;4042169;29;20104;-84
2022/11/21 10:57:50;;;;;;;7.78;3.83;;;1.80;76.40;;;;;;4044540;29;20054;-84
2022/11/21 11:00:13;;;;;;;6.35;3.47;;;1.80;76.40;;;;;;4053252;29;20039;-83
2022/11/21 11:02:33;;;;;;;8.88;3.97;;;1.80;76.40;;;;;;4056018;29;20051;-84
2022/11/21 11:05:17;;;;;;;8.70;4.35;;;1.90;76.50;;;;;;4050651;29;20581;-84
2022/11/21 11:07:36;;;;;;;7.22;4.13;;;1.90;76.60;;;;;;4053410;29;20055;-83
2022/11/21 11:10:13;;;;;;;11.60;4.75;;;1.90;77.30;;;;;;4047460;29;20147;-84
2022/11/21 11:15:20;;;;;;;10.73;5.40;;;2.00;76.60;;;;;;4056811;29;20163;-83
2022/11/21 11:17:40;;;;;;;10.80;5.05;;;2.00;76.50;;;;;;4058000;29;20081;-84
2022/11/21 11:20:23;;;;;;;9.85;4.75;;;2.00;76.60;;;;;;4093951;28;20150;-84
2022/11/21 11:22:42;;;;;;;8.15;4.70;;;2.10;76.70;;;;;;4113659;28;20130;-83
2022/11/21 11:25:04;;;;;;;8.23;5.20;;;2.10;76.80;;;;;;4114238;28;20033;-84
2022/11/21 11:27:27;;;;;;;10.95;6.15;;;2.20;76.70;;;;;;4093148;28;20042;-83
2022/11/21 11:29:50;;;;;;;;;;;2.20;76.70;;;;;;4130447;28;20111;-84
2022/11/21 11:32:18;;;;;;;9.05;4.85;;;2.20;77.20;;;;;;4115694;28;19972;-84
2022/11/21 11:34:58;;;;;;;10.05;5.15;;;2.30;76.60;;;;;;4116813;28;20525;-84
2022/11/21 11:37:37;;;;;;;10.13;5.80;;;2.30;76.50;;;;;;4094503;28;20093;-84
2022/11/21 11:40:20;;;;;;;13.25;6.82;;;2.30;76.50;;;;;;4117220;28;20036;-84
2022/11/21 11:47:29;;;;;;;12.45;6.85;;;2.30;76.20;;;;;;4115497;28;20070;-84
2022/11/21 11:49:20;;;;;;;14.13;7.68;;;2.30;76.20;;;;;;4115982;28;20042;-84
2022/11/21 11:51:39;;;;;;;13.95;7.78;;;2.40;76.20;;;;;;4098536;28;20035;-84
2022/11/21 11:53:47;;;;;;;17.50;7.40;;;2.40;76.20;;;;;;4118115;28;20494;-84
2022/11/21 11:56:19;;;;;;;16.58;7.45;;;2.40;76.00;;;;;;4105444;28;20031;-87
2022/11/21 11:58:48;;;;;;;18.33;8.88;;;2.30;76.00;;;;;;4101250;28;20472;-84
2022/11/21 12:00:53;;;;;;;15.00;8.13;;;2.40;76.10;;;;;;4103883;28;20664;-85
2022/11/21 12:03:16;;;;;;;16.02;8.05;;;2.40;75.90;;;;;;4105863;28;20026;-83
2022/11/21 12:05:23;;;;;;;14.32;7.88;;;2.40;75.90;;;;;;4118491;28;20026;-84
2022/11/21 12:07:38;;;;;;;17.77;8.90;;;2.40;75.90;;;;;;4124646;28;20054;-84
2022/11/21 12:10:16;;;;;;;17.30;9.32;;;2.40;76.00;;;;;;4107160;28;20030;-83
2022/11/21 12:12:20;;;;;;;15.50;8.75;;;2.40;76.00;;;;;;4106643;28;20042;-83
2022/11/21 12:16:57;;;;;;;18.77;9.32;;;2.40;75.90;;;;;;4118916;28;20026;-85
2022/11/21 12:19:11;;;;;;;18.42;9.45;;;2.40;75.90;;;;;;4122092;28;20037;-84
2022/11/21 12:21:14;;;;;;;14.88;8.45;;;2.40;76.10;;;;;;4120561;28;20034;-85
2022/11/21 12:23:15;;;;;;;18.38;8.70;;;2.40;76.00;;;;;;4117763;28;20446;-85
2022/11/21 12:25:19;;;;;;;14.50;8.57;;;2.40;76.10;;;;;;4105257;28;20023;-84
2022/11/21 12:27:25;;;;;;;15.48;8.93;;;2.40;76.20;;;;;;4118178;28;20026;-84
2022/11/21 12:29:37;;;;;;;16.48;8.90;;;2.40;76.20;;;;;;4119437;28;20023;-84
2022/11/21 12:31:43;;;;;;;16.02;9.18;;;2.40;76.20;;;;;;4118128;28;20022;-85
2022/11/21 12:34:02;;;;;;;16.75;9.38;;;2.50;76.30;;;;;;4119932;28;20022;-84